sensor_id;sensor_type;location;lat;lon;timestamp;P1;durP1;ratioP1;P2;durP2;ratioP2
18399;SDS011;9326;49.468;11.008;2023-03-14T00:00:05;0.40;;;0.40;;
18399;SDS011;9326;49.468;11.008;2023-03-14T00:02:33;2.97;;;0.60;;
18399;SDS011;9326;49.468;11.008;2023-03-14T00:05:00;0.97;;;0.50;;
18399;SDS011;9326;49.468;11.008;2023-03-14T00:07:31;0.93;;;0.50;;
18399;SDS011;9326;49.468;11.008;2023-03-14T00:10:02;0.60;;;0.60;;
18399;SDS011;9326;49.468;11.008;2023-03-14T00:12:30;0.83;;;0.60;;
18399;SDS011;9326;49.468;11.008;2023-03-14T00:14:57;1.60;;;0.80;;
18399;SDS011;9326;49.468;11.008;2023-03-14T00:17:28;0.40;;;0.40;;
18399;SDS011;9326;49.468;11.008;2023-03-14T00:19:55;0.30;;;0.30;;
18399;SDS011;9326;49.468;11.008;2023-03-14T00:22:22;0.70;;;0.40;;
18399;SDS011;9326;49.468;11.008;2023-03-14T00:24:50;1.13;;;0.30;;
18399;SDS011;9326;49.468;11.008;2023-03-14T00:27:18;0.40;;;0.40;;
18399;SDS011;9326;49.468;11.008;2023-03-14T00:29:49;0.30;;;0.30;;
18399;SDS011;9326;49.468;11.008;2023-03-14T00:32:16;1.03;;;0.40;;
18399;SDS011;9326;49.468;11.008;2023-03-14T00:34:43;0.43;;;0.43;;
18399;SDS011;9326;49.468;11.008;2023-03-14T00:37:13;0.77;;;0.40;;
18399;SDS011;9326;49.468;11.008;2023-03-14T00:39:40;0.43;;;0.37;;
18399;SDS011;9326;49.468;11.008;2023-03-14T00:42:08;0.50;;;0.50;;
18399;SDS011;9326;49.468;11.008;2023-03-14T00:44:35;0.37;;;0.37;;
18399;SDS011;9326;49.468;11.008;2023-03-14T00:47:06;0.90;;;0.40;;
18399;SDS011;9326;49.468;11.008;2023-03-14T00:49:33;0.20;;;0.20;;
18399;SDS011;9326;49.468;11.008;2023-03-14T00:52:00;1.47;;;0.40;;
18399;SDS011;9326;49.468;11.008;2023-03-14T00:54:27;0.30;;;0.30;;
18399;SDS011;9326;49.468;11.008;2023-03-14T00:56:54;0.23;;;0.23;;
18399;SDS011;9326;49.468;11.008;2023-03-14T00:59:23;0.30;;;0.30;;
18399;SDS011;9326;49.468;11.008;2023-03-14T06:00:53;0.57;;;0.40;;
18399;SDS011;9326;49.468;11.008;2023-03-14T06:03:20;0.40;;;0.40;;
18399;SDS011;9326;49.468;11.008;2023-03-14T06:05:49;1.27;;;0.30;;
18399;SDS011;9326;49.468;11.008;2023-03-14T06:08:16;0.50;;;0.50;;
18399;SDS011;9326;49.468;11.008;2023-03-14T06:10:43;0.40;;;0.40;;
18399;SDS011;9326;49.468;11.008;2023-03-14T06:13:10;1.40;;;0.43;;
18399;SDS011;9326;49.468;11.008;2023-03-14T06:15:37;1.77;;;0.40;;
18399;SDS011;9326;49.468;11.008;2023-03-14T06:18:05;0.37;;;0.37;;
18399;SDS011;9326;49.468;11.008;2023-03-14T06:20:32;1.43;;;0.50;;
18399;SDS011;9326;49.468;11.008;2023-03-14T06:23:00;0.90;;;0.50;;
18399;SDS011;9326;49.468;11.008;2023-03-14T06:25:27;1.20;;;0.67;;
18399;SDS011;9326;49.468;11.008;2023-03-14T06:27:54;0.90;;;0.50;;
18399;SDS011;9326;49.468;11.008;2023-03-14T06:30:21;0.70;;;0.70;;
18399;SDS011;9326;49.468;11.008;2023-03-14T06:32:49;1.20;;;0.73;;
18399;SDS011;9326;49.468;11.008;2023-03-14T06:35:19;0.77;;;0.60;;
18399;SDS011;9326;49.468;11.008;2023-03-14T06:37:46;0.60;;;0.60;;
18399;SDS011;9326;49.468;11.008;2023-03-14T06:40:14;1.03;;;0.70;;
18399;SDS011;9326;49.468;11.008;2023-03-14T06:42:43;1.10;;;0.60;;
18399;SDS011;9326;49.468;11.008;2023-03-14T06:45:10;1.20;;;0.90;;
18399;SDS011;9326;49.468;11.008;2023-03-14T06:47:38;1.80;;;1.00;;
18399;SDS011;9326;49.468;11.008;2023-03-14T06:50:05;1.10;;;0.80;;
18399;SDS011;9326;49.468;11.008;2023-03-14T06:52:34;1.30;;;0.83;;
18399;SDS011;9326;49.468;11.008;2023-03-14T06:55:01;1.20;;;1.10;;
18399;SDS011;9326;49.468;11.008;2023-03-14T06:57:28;2.70;;;1.20;;
18399;SDS011;9326;49.468;11.008;2023-03-14T06:59:55;0.90;;;0.90;;
18399;SDS011;9326;49.468;11.008;2023-03-14T07:02:23;1.67;;;1.10;;
18399;SDS011;9326;49.468;11.008;2023-03-14T07:04:50;0.77;;;0.73;;
18399;SDS011;9326;49.468;11.008;2023-03-14T07:07:17;1.23;;;0.70;;
18399;SDS011;9326;49.468;11.008;2023-03-14T07:09:48;1.03;;;0.90;;
18399;SDS011;9326;49.468;11.008;2023-03-14T07:12:15;0.80;;;0.80;;
18399;SDS011;9326;49.468;11.008;2023-03-14T07:14:43;0.97;;;0.80;;
18399;SDS011;9326;49.468;11.008;2023-03-14T07:17:10;1.37;;;0.80;;
18399;SDS011;9326;49.468;11.008;2023-03-14T07:19:37;0.93;;;0.70;;
18399;SDS011;9326;49.468;11.008;2023-03-14T07:22:07;1.60;;;0.80;;
18399;SDS011;9326;49.468;11.008;2023-03-14T07:24:34;0.70;;;0.70;;
18399;SDS011;9326;49.468;11.008;2023-03-14T07:27:02;1.07;;;0.80;;
18399;SDS011;9326;49.468;11.008;2023-03-14T07:29:29;1.70;;;0.70;;
18399;SDS011;9326;49.468;11.008;2023-03-14T07:31:59;1.93;;;0.80;;
18399;SDS011;9326;49.468;11.008;2023-03-14T07:34:26;1.20;;;0.80;;
18399;SDS011;9326;49.468;11.008;2023-03-14T07:36:54;1.20;;;1.10;;
18399;SDS011;9326;49.468;11.008;2023-03-14T07:39:21;6.33;;;5.73;;
18399;SDS011;9326;49.468;11.008;2023-03-14T07:41:50;8.07;;;7.13;;
18399;SDS011;9326;49.468;11.008;2023-03-14T07:44:19;17.23;;;12.03;;
18399;SDS011;9326;49.468;11.008;2023-03-14T07:46:46;4.70;;;3.97;;
18399;SDS011;9326;49.468;11.008;2023-03-14T07:49:13;3.20;;;2.27;;
18399;SDS011;9326;49.468;11.008;2023-03-14T07:51:41;3.03;;;2.77;;
18399;SDS011;9326;49.468;11.008;2023-03-14T07:54:10;4.93;;;4.30;;
18399;SDS011;9326;49.468;11.008;2023-03-14T07:56:37;6.37;;;5.37;;
18399;SDS011;9326;49.468;11.008;2023-03-14T07:59:04;4.00;;;2.53;;
18399;SDS011;9326;49.468;11.008;2023-03-14T08:01:33;13.53;;;9.43;;
18399;SDS011;9326;49.468;11.008;2023-03-14T08:04:00;2.77;;;2.20;;
18399;SDS011;9326;49.468;11.008;2023-03-14T08:06:27;11.13;;;7.50;;
18399;SDS011;9326;49.468;11.008;2023-03-14T08:08:54;8.67;;;6.20;;
18399;SDS011;9326;49.468;11.008;2023-03-14T08:11:21;5.53;;;3.47;;
18399;SDS011;9326;49.468;11.008;2023-03-14T08:13:48;9.30;;;6.97;;
18399;SDS011;9326;49.468;11.008;2023-03-14T08:16:18;10.70;;;8.17;;
18399;SDS011;9326;49.468;11.008;2023-03-14T08:18:46;4.07;;;3.37;;
18399;SDS011;9326;49.468;11.008;2023-03-14T08:21:17;10.90;;;7.50;;
18399;SDS011;9326;49.468;11.008;2023-03-14T08:23:44;6.40;;;4.73;;
18399;SDS011;9326;49.468;11.008;2023-03-14T08:26:11;7.90;;;6.00;;
18399;SDS011;9326;49.468;11.008;2023-03-14T08:28:39;6.00;;;4.60;;
18399;SDS011;9326;49.468;11.008;2023-03-14T08:31:06;4.60;;;2.63;;
18399;SDS011;9326;49.468;11.008;2023-03-14T08:33:33;6.63;;;5.00;;
18399;SDS011;9326;49.468;11.008;2023-03-14T08:36:01;16.37;;;10.97;;
18399;SDS011;9326;49.468;11.008;2023-03-14T08:38:28;7.70;;;5.43;;
18399;SDS011;9326;49.468;11.008;2023-03-14T08:40:56;7.00;;;4.03;;
18399;SDS011;9326;49.468;11.008;2023-03-14T08:43:23;19.20;;;10.73;;
18399;SDS011;9326;49.468;11.008;2023-03-14T08:45:50;9.40;;;5.17;;
18399;SDS011;9326;49.468;11.008;2023-03-14T08:48:17;7.07;;;3.57;;
18399;SDS011;9326;49.468;11.008;2023-03-14T08:50:46;8.20;;;5.00;;
18399;SDS011;9326;49.468;11.008;2023-03-14T08:53:14;11.13;;;8.03;;
18399;SDS011;9326;49.468;11.008;2023-03-14T08:55:45;9.80;;;6.50;;
18399;SDS011;9326;49.468;11.008;2023-03-14T08:58:13;10.77;;;7.47;;
18399;SDS011;9326;49.468;11.008;2023-03-14T09:00:40;9.33;;;7.00;;
18399;SDS011;9326;49.468;11.008;2023-03-14T09:03:07;5.60;;;3.80;;
18399;SDS011;9326;49.468;11.008;2023-03-14T09:05:34;9.90;;;5.63;;
18399;SDS011;9326;49.468;11.008;2023-03-14T09:08:01;12.93;;;8.07;;
18399;SDS011;9326;49.468;11.008;2023-03-14T09:10:30;8.13;;;6.60;;
18399;SDS011;9326;49.468;11.008;2023-03-14T09:12:57;8.40;;;4.77;;
18399;SDS011;9326;49.468;11.008;2023-03-14T09:15:25;3.10;;;2.10;;
18399;SDS011;9326;49.468;11.008;2023-03-14T09:17:59;7.70;;;5.10;;
18399;SDS011;9326;49.468;11.008;2023-03-14T09:20:27;3.97;;;2.77;;
18399;SDS011;9326;49.468;11.008;2023-03-14T09:22:54;3.00;;;1.77;;
18399;SDS011;9326;49.468;11.008;2023-03-14T09:25:22;10.27;;;7.73;;
18399;SDS011;9326;49.468;11.008;2023-03-14T09:27:51;9.63;;;6.10;;
18399;SDS011;9326;49.468;11.008;2023-03-14T09:30:18;5.27;;;3.60;;
18399;SDS011;9326;49.468;11.008;2023-03-14T09:32:45;6.30;;;5.20;;
18399;SDS011;9326;49.468;11.008;2023-03-14T09:35:12;3.93;;;1.47;;
18399;SDS011;9326;49.468;11.008;2023-03-14T09:37:40;4.30;;;2.30;;
18399;SDS011;9326;49.468;11.008;2023-03-14T09:40:10;11.53;;;7.20;;
18399;SDS011;9326;49.468;11.008;2023-03-14T09:42:38;7.33;;;5.53;;
18399;SDS011;9326;49.468;11.008;2023-03-14T09:45:11;2.37;;;1.47;;
18399;SDS011;9326;49.468;11.008;2023-03-14T09:47:40;2.17;;;1.40;;
18399;SDS011;9326;49.468;11.008;2023-03-14T09:50:10;2.00;;;0.90;;
18399;SDS011;9326;49.468;11.008;2023-03-14T09:52:38;2.80;;;2.07;;
18399;SDS011;9326;49.468;11.008;2023-03-14T09:55:10;2.47;;;1.40;;
18399;SDS011;9326;49.468;11.008;2023-03-14T09:57:39;1.30;;;0.63;;
18399;SDS011;9326;49.468;11.008;2023-03-14T10:00:06;1.63;;;1.13;;
18399;SDS011;9326;49.468;11.008;2023-03-14T10:02:41;1.40;;;0.50;;
18399;SDS011;9326;49.468;11.008;2023-03-14T10:05:14;2.23;;;0.40;;
18399;SDS011;9326;49.468;11.008;2023-03-14T10:07:42;0.93;;;0.70;;
18399;SDS011;9326;49.468;11.008;2023-03-14T10:10:11;2.63;;;0.70;;
18399;SDS011;9326;49.468;11.008;2023-03-14T10:12:40;1.27;;;0.57;;
18399;SDS011;9326;49.468;11.008;2023-03-14T10:15:08;0.73;;;0.60;;
18399;SDS011;9326;49.468;11.008;2023-03-14T10:17:39;2.27;;;1.00;;
18399;SDS011;9326;49.468;11.008;2023-03-14T10:20:14;1.10;;;1.00;;
18399;SDS011;9326;49.468;11.008;2023-03-14T10:22:54;0.80;;;0.60;;
18399;SDS011;9326;49.468;11.008;2023-03-14T10:25:25;2.57;;;1.00;;
18399;SDS011;9326;49.468;11.008;2023-03-14T10:27:53;2.37;;;1.40;;
18399;SDS011;9326;49.468;11.008;2023-03-14T10:30:27;1.47;;;0.90;;
18399;SDS011;9326;49.468;11.008;2023-03-14T10:32:54;2.07;;;1.47;;
18399;SDS011;9326;49.468;11.008;2023-03-14T10:35:23;0.50;;;0.50;;
18399;SDS011;9326;49.468;11.008;2023-03-14T10:37:51;2.30;;;0.70;;
18399;SDS011;9326;49.468;11.008;2023-03-14T10:40:19;1.20;;;0.70;;
18399;SDS011;9326;49.468;11.008;2023-03-14T10:42:47;1.23;;;0.53;;
18399;SDS011;9326;49.468;11.008;2023-03-14T10:45:22;0.60;;;0.50;;
18399;SDS011;9326;49.468;11.008;2023-03-14T10:47:52;1.60;;;0.60;;
18399;SDS011;9326;49.468;11.008;2023-03-14T10:50:24;2.63;;;0.70;;
18399;SDS011;9326;49.468;11.008;2023-03-14T10:52:53;1.00;;;0.60;;
18399;SDS011;9326;49.468;11.008;2023-03-14T10:55:20;1.33;;;0.60;;
18399;SDS011;9326;49.468;11.008;2023-03-14T10:57:49;1.10;;;0.70;;
18399;SDS011;9326;49.468;11.008;2023-03-14T11:00:18;1.17;;;0.60;;
18399;SDS011;9326;49.468;11.008;2023-03-14T11:05:29;0.57;;;0.53;;
18399;SDS011;9326;49.468;11.008;2023-03-14T11:07:59;1.70;;;0.70;;
18399;SDS011;9326;49.468;11.008;2023-03-14T11:10:31;2.70;;;0.60;;
18399;SDS011;9326;49.468;11.008;2023-03-14T11:13:05;1.47;;;0.60;;
18399;SDS011;9326;49.468;11.008;2023-03-14T11:15:36;1.00;;;0.50;;
18399;SDS011;9326;49.468;11.008;2023-03-14T11:18:12;1.07;;;0.50;;
18399;SDS011;9326;49.468;11.008;2023-03-14T11:20:44;0.87;;;0.60;;
18399;SDS011;9326;49.468;11.008;2023-03-14T11:23:13;1.73;;;0.77;;
18399;SDS011;9326;49.468;11.008;2023-03-14T11:25:44;1.67;;;0.60;;
18399;SDS011;9326;49.468;11.008;2023-03-14T11:28:16;1.70;;;0.67;;
18399;SDS011;9326;49.468;11.008;2023-03-14T11:30:46;2.73;;;2.53;;
18399;SDS011;9326;49.468;11.008;2023-03-14T11:33:17;1.53;;;0.80;;
18399;SDS011;9326;49.468;11.008;2023-03-14T11:35:49;1.73;;;0.60;;
18399;SDS011;9326;49.468;11.008;2023-03-14T11:38:25;1.80;;;0.73;;
18399;SDS011;9326;49.468;11.008;2023-03-14T11:40:58;0.60;;;0.30;;
18399;SDS011;9326;49.468;11.008;2023-03-14T11:43:29;0.90;;;0.43;;
18399;SDS011;9326;49.468;11.008;2023-03-14T11:45:58;1.17;;;0.40;;
18399;SDS011;9326;49.468;11.008;2023-03-14T11:48:29;0.93;;;0.30;;
18399;SDS011;9326;49.468;11.008;2023-03-14T11:51:04;0.50;;;0.30;;
18399;SDS011;9326;49.468;11.008;2023-03-14T11:53:36;1.40;;;0.70;;
18399;SDS011;9326;49.468;11.008;2023-03-14T11:56:08;0.77;;;0.30;;
18399;SDS011;9326;49.468;11.008;2023-03-14T11:58:37;0.30;;;0.30;;
18399;SDS011;9326;49.468;11.008;2023-03-14T12:01:09;2.53;;;0.63;;
18399;SDS011;9326;49.468;11.008;2023-03-14T12:03:39;0.73;;;0.30;;
18399;SDS011;9326;49.468;11.008;2023-03-14T12:06:12;1.00;;;0.50;;
18399;SDS011;9326;49.468;11.008;2023-03-14T12:08:45;0.30;;;0.30;;
18399;SDS011;9326;49.468;11.008;2023-03-14T12:11:14;2.27;;;1.63;;
18399;SDS011;9326;49.468;11.008;2023-03-14T12:13:45;0.40;;;0.40;;
18399;SDS011;9326;49.468;11.008;2023-03-14T12:16:20;0.60;;;0.60;;
18399;SDS011;9326;49.468;11.008;2023-03-14T12:18:49;0.27;;;0.27;;
18399;SDS011;9326;49.468;11.008;2023-03-14T12:21:17;0.53;;;0.53;;
18399;SDS011;9326;49.468;11.008;2023-03-14T12:23:45;0.87;;;0.60;;
18399;SDS011;9326;49.468;11.008;2023-03-14T12:26:16;0.60;;;0.30;;
18399;SDS011;9326;49.468;11.008;2023-03-14T12:28:43;0.60;;;0.60;;
18399;SDS011;9326;49.468;11.008;2023-03-14T12:34:00;0.87;;;0.20;;
18399;SDS011;9326;49.468;11.008;2023-03-14T12:36:48;0.73;;;0.30;;
18399;SDS011;9326;49.468;11.008;2023-03-14T12:39:21;0.30;;;0.30;;
18399;SDS011;9326;49.468;11.008;2023-03-14T12:42:00;0.63;;;0.30;;
18399;SDS011;9326;49.468;11.008;2023-03-14T12:44:45;0.10;;;0.10;;
18399;SDS011;9326;49.468;11.008;2023-03-14T12:47:26;0.87;;;0.30;;
18399;SDS011;9326;49.468;11.008;2023-03-14T12:50:12;0.20;;;0.20;;
18399;SDS011;9326;49.468;11.008;2023-03-14T12:52:43;0.33;;;0.30;;
18399;SDS011;9326;49.468;11.008;2023-03-14T12:55:12;0.63;;;0.37;;
18399;SDS011;9326;49.468;11.008;2023-03-14T12:57:44;1.27;;;0.80;;
18399;SDS011;9326;49.468;11.008;2023-03-14T13:00:23;1.37;;;0.40;;
18399;SDS011;9326;49.468;11.008;2023-03-14T13:02:50;0.57;;;0.50;;
18399;SDS011;9326;49.468;11.008;2023-03-14T13:05:20;0.20;;;0.20;;
18399;SDS011;9326;49.468;11.008;2023-03-14T13:08:05;0.87;;;0.20;;
18399;SDS011;9326;49.468;11.008;2023-03-14T13:10:40;0.40;;;0.40;;
18399;SDS011;9326;49.468;11.008;2023-03-14T13:13:14;0.50;;;0.20;;
18399;SDS011;9326;49.468;11.008;2023-03-14T13:15:43;0.20;;;0.20;;
18399;SDS011;9326;49.468;11.008;2023-03-14T13:18:11;0.77;;;0.37;;
18399;SDS011;9326;49.468;11.008;2023-03-14T13:20:40;0.80;;;0.80;;
18399;SDS011;9326;49.468;11.008;2023-03-14T13:23:20;0.70;;;0.50;;
18399;SDS011;9326;49.468;11.008;2023-03-14T13:25:49;1.07;;;0.40;;
18399;SDS011;9326;49.468;11.008;2023-03-14T13:28:19;1.03;;;0.60;;
18399;SDS011;9326;49.468;11.008;2023-03-14T13:30:46;2.67;;;2.47;;
18399;SDS011;9326;49.468;11.008;2023-03-14T13:33:14;3.40;;;3.10;;
18399;SDS011;9326;49.468;11.008;2023-03-14T13:35:42;1.67;;;0.80;;
18399;SDS011;9326;49.468;11.008;2023-03-14T13:38:17;2.20;;;2.00;;
18399;SDS011;9326;49.468;11.008;2023-03-14T13:40:46;3.50;;;3.00;;
18399;SDS011;9326;49.468;11.008;2023-03-14T13:43:15;6.10;;;3.47;;
18399;SDS011;9326;49.468;11.008;2023-03-14T13:45:47;1.10;;;0.87;;
18399;SDS011;9326;49.468;11.008;2023-03-14T13:48:15;5.43;;;4.87;;
18399;SDS011;9326;49.468;11.008;2023-03-14T13:50:44;6.03;;;3.77;;
18399;SDS011;9326;49.468;11.008;2023-03-14T13:53:12;1.00;;;0.83;;
18399;SDS011;9326;49.468;11.008;2023-03-14T13:55:39;1.03;;;0.93;;
18399;SDS011;9326;49.468;11.008;2023-03-14T13:58:11;0.93;;;0.80;;
18399;SDS011;9326;49.468;11.008;2023-03-14T14:00:40;1.63;;;0.90;;
18399;SDS011;9326;49.468;11.008;2023-03-14T14:03:08;2.70;;;2.30;;
18399;SDS011;9326;49.468;11.008;2023-03-14T14:05:38;2.70;;;2.50;;
18399;SDS011;9326;49.468;11.008;2023-03-14T14:08:06;1.10;;;1.00;;
18399;SDS011;9326;49.468;11.008;2023-03-14T14:10:35;3.13;;;1.47;;
18399;SDS011;9326;49.468;11.008;2023-03-14T14:13:03;1.80;;;0.70;;
18399;SDS011;9326;49.468;11.008;2023-03-14T14:15:34;1.00;;;0.70;;
18399;SDS011;9326;49.468;11.008;2023-03-14T14:18:04;0.90;;;0.80;;
18399;SDS011;9326;49.468;11.008;2023-03-14T14:20:33;0.70;;;0.70;;
18399;SDS011;9326;49.468;11.008;2023-03-14T14:23:02;1.00;;;0.90;;
18399;SDS011;9326;49.468;11.008;2023-03-14T14:25:29;0.47;;;0.47;;
18399;SDS011;9326;49.468;11.008;2023-03-14T14:27:57;0.47;;;0.40;;
18399;SDS011;9326;49.468;11.008;2023-03-14T14:30:25;1.70;;;0.33;;
18399;SDS011;9326;49.468;11.008;2023-03-14T14:33:06;1.10;;;0.60;;
18399;SDS011;9326;49.468;11.008;2023-03-14T14:35:36;1.07;;;0.67;;
18399;SDS011;9326;49.468;11.008;2023-03-14T14:38:08;0.40;;;0.40;;
18399;SDS011;9326;49.468;11.008;2023-03-14T14:40:42;0.43;;;0.43;;
18399;SDS011;9326;49.468;11.008;2023-03-14T14:43:10;0.73;;;0.50;;
18399;SDS011;9326;49.468;11.008;2023-03-14T14:45:43;2.63;;;0.50;;
18399;SDS011;9326;49.468;11.008;2023-03-14T14:48:13;1.40;;;0.30;;
18399;SDS011;9326;49.468;11.008;2023-03-14T14:50:48;0.60;;;0.57;;
18399;SDS011;9326;49.468;11.008;2023-03-14T14:53:21;1.30;;;0.40;;
18399;SDS011;9326;49.468;11.008;2023-03-14T14:55:51;0.47;;;0.30;;
18399;SDS011;9326;49.468;11.008;2023-03-14T14:58:19;1.50;;;0.50;;
18399;SDS011;9326;49.468;11.008;2023-03-14T15:00:51;0.90;;;0.90;;
18399;SDS011;9326;49.468;11.008;2023-03-14T15:03:21;0.70;;;0.60;;
18399;SDS011;9326;49.468;11.008;2023-03-14T15:05:50;0.77;;;0.50;;
18399;SDS011;9326;49.468;11.008;2023-03-14T15:08:17;0.70;;;0.43;;
18399;SDS011;9326;49.468;11.008;2023-03-14T15:10:46;0.60;;;0.47;;
18399;SDS011;9326;49.468;11.008;2023-03-14T15:13:13;0.80;;;0.80;;
18399;SDS011;9326;49.468;11.008;2023-03-14T15:15:40;1.30;;;1.20;;
18399;SDS011;9326;49.468;11.008;2023-03-14T15:18:10;2.00;;;1.10;;
18399;SDS011;9326;49.468;11.008;2023-03-14T15:20:39;1.93;;;0.80;;
18399;SDS011;9326;49.468;11.008;2023-03-14T15:23:09;0.77;;;0.70;;
18399;SDS011;9326;49.468;11.008;2023-03-14T15:25:36;1.27;;;1.17;;
18399;SDS011;9326;49.468;11.008;2023-03-14T15:28:05;1.27;;;1.17;;
18399;SDS011;9326;49.468;11.008;2023-03-14T15:30:37;1.73;;;1.20;;
18399;SDS011;9326;49.468;11.008;2023-03-14T15:33:04;1.20;;;1.10;;
18399;SDS011;9326;49.468;11.008;2023-03-14T15:35:34;1.40;;;1.10;;
18399;SDS011;9326;49.468;11.008;2023-03-14T15:38:03;1.57;;;1.47;;
18399;SDS011;9326;49.468;11.008;2023-03-14T15:40:32;2.20;;;1.40;;
18399;SDS011;9326;49.468;11.008;2023-03-14T15:42:59;1.63;;;1.20;;
18399;SDS011;9326;49.468;11.008;2023-03-14T15:45:26;2.87;;;1.30;;
18399;SDS011;9326;49.468;11.008;2023-03-14T15:47:53;2.83;;;1.40;;
18399;SDS011;9326;49.468;11.008;2023-03-14T15:50:20;1.80;;;1.47;;
18399;SDS011;9326;49.468;11.008;2023-03-14T15:52:48;2.60;;;1.63;;
18399;SDS011;9326;49.468;11.008;2023-03-14T15:55:16;2.43;;;1.40;;
18399;SDS011;9326;49.468;11.008;2023-03-14T15:57:44;3.27;;;1.60;;
18399;SDS011;9326;49.468;11.008;2023-03-14T16:00:18;2.50;;;1.40;;
18399;SDS011;9326;49.468;11.008;2023-03-14T16:02:46;1.87;;;1.20;;
18399;SDS011;9326;49.468;11.008;2023-03-14T16:05:13;2.17;;;1.73;;
18399;SDS011;9326;49.468;11.008;2023-03-14T16:07:41;1.87;;;1.30;;
18399;SDS011;9326;49.468;11.008;2023-03-14T16:10:09;3.57;;;1.40;;
18399;SDS011;9326;49.468;11.008;2023-03-14T16:12:38;1.97;;;1.50;;
18399;SDS011;9326;49.468;11.008;2023-03-14T16:15:06;1.67;;;1.10;;
18399;SDS011;9326;49.468;11.008;2023-03-14T16:17:34;2.37;;;1.00;;
18399;SDS011;9326;49.468;11.008;2023-03-14T16:20:08;3.03;;;1.20;;
18399;SDS011;9326;49.468;11.008;2023-03-14T16:22:36;2.37;;;1.00;;
18399;SDS011;9326;49.468;11.008;2023-03-14T16:25:06;2.60;;;1.10;;
18399;SDS011;9326;49.468;11.008;2023-03-14T16:27:33;2.83;;;0.97;;
18399;SDS011;9326;49.468;11.008;2023-03-14T16:30:01;1.73;;;1.10;;
18399;SDS011;9326;49.468;11.008;2023-03-14T16:32:29;3.70;;;1.20;;
18399;SDS011;9326;49.468;11.008;2023-03-14T16:34:57;1.73;;;1.17;;
18399;SDS011;9326;49.468;11.008;2023-03-14T16:37:24;0.93;;;0.83;;
18399;SDS011;9326;49.468;11.008;2023-03-14T16:39:52;2.27;;;1.00;;
18399;SDS011;9326;49.468;11.008;2023-03-14T16:42:21;2.93;;;1.10;;
18399;SDS011;9326;49.468;11.008;2023-03-14T16:44:48;2.37;;;0.90;;
18399;SDS011;9326;49.468;11.008;2023-03-14T16:47:17;2.00;;;1.07;;
18399;SDS011;9326;49.468;11.008;2023-03-14T16:49:44;3.10;;;1.40;;
18399;SDS011;9326;49.468;11.008;2023-03-14T16:52:11;1.07;;;0.90;;
18399;SDS011;9326;49.468;11.008;2023-03-14T16:54:39;2.90;;;1.20;;
18399;SDS011;9326;49.468;11.008;2023-03-14T16:57:06;4.50;;;1.33;;
18399;SDS011;9326;49.468;11.008;2023-03-14T16:59:33;2.87;;;1.00;;
18399;SDS011;9326;49.468;11.008;2023-03-14T17:02:00;1.50;;;1.00;;
18399;SDS011;9326;49.468;11.008;2023-03-14T17:04:34;2.97;;;1.40;;
18399;SDS011;9326;49.468;11.008;2023-03-14T17:07:01;3.40;;;1.10;;
18399;SDS011;9326;49.468;11.008;2023-03-14T17:09:29;2.47;;;1.10;;
18399;SDS011;9326;49.468;11.008;2023-03-14T17:11:56;1.53;;;0.90;;
18399;SDS011;9326;49.468;11.008;2023-03-14T17:14:24;2.33;;;1.40;;
18399;SDS011;9326;49.468;11.008;2023-03-14T17:16:52;3.43;;;1.43;;
18399;SDS011;9326;49.468;11.008;2023-03-14T17:19:22;2.80;;;1.80;;
18399;SDS011;9326;49.468;11.008;2023-03-14T17:21:50;2.57;;;1.37;;
18399;SDS011;9326;49.468;11.008;2023-03-14T17:24:18;2.80;;;0.90;;
18399;SDS011;9326;49.468;11.008;2023-03-14T17:26:45;1.60;;;1.17;;
18399;SDS011;9326;49.468;11.008;2023-03-14T17:29:12;2.37;;;1.30;;
18399;SDS011;9326;49.468;11.008;2023-03-14T17:31:39;1.83;;;1.20;;
18399;SDS011;9326;49.468;11.008;2023-03-14T17:34:09;1.60;;;1.00;;
18399;SDS011;9326;49.468;11.008;2023-03-14T17:36:36;2.27;;;1.50;;
18399;SDS011;9326;49.468;11.008;2023-03-14T17:39:05;4.07;;;1.40;;
18399;SDS011;9326;49.468;11.008;2023-03-14T17:41:33;0.80;;;0.80;;
18399;SDS011;9326;49.468;11.008;2023-03-14T17:44:00;1.13;;;0.90;;
18399;SDS011;9326;49.468;11.008;2023-03-14T17:46:27;2.60;;;0.90;;
18399;SDS011;9326;49.468;11.008;2023-03-14T17:48:54;3.60;;;2.40;;
18399;SDS011;9326;49.468;11.008;2023-03-14T17:51:22;4.30;;;3.93;;
18399;SDS011;9326;49.468;11.008;2023-03-14T17:53:49;3.30;;;3.00;;
18399;SDS011;9326;49.468;11.008;2023-03-14T17:56:17;2.00;;;1.83;;
18399;SDS011;9326;49.468;11.008;2023-03-14T17:58:45;1.10;;;0.93;;
18399;SDS011;9326;49.468;11.008;2023-03-14T18:01:13;1.27;;;0.83;;
18399;SDS011;9326;49.468;11.008;2023-03-14T18:03:40;1.17;;;0.90;;
18399;SDS011;9326;49.468;11.008;2023-03-14T18:06:09;1.73;;;1.00;;
18399;SDS011;9326;49.468;11.008;2023-03-14T18:08:37;1.17;;;0.70;;
18399;SDS011;9326;49.468;11.008;2023-03-14T18:11:06;0.83;;;0.80;;
18399;SDS011;9326;49.468;11.008;2023-03-14T18:13:35;1.33;;;0.90;;
18399;SDS011;9326;49.468;11.008;2023-03-14T18:16:03;1.23;;;1.13;;
18399;SDS011;9326;49.468;11.008;2023-03-14T18:18:31;1.00;;;1.00;;
18399;SDS011;9326;49.468;11.008;2023-03-14T18:20:58;2.73;;;0.80;;
18399;SDS011;9326;49.468;11.008;2023-03-14T18:23:25;1.37;;;1.20;;
18399;SDS011;9326;49.468;11.008;2023-03-14T18:25:52;1.67;;;1.33;;
18399;SDS011;9326;49.468;11.008;2023-03-14T18:28:19;2.80;;;1.43;;
18399;SDS011;9326;49.468;11.008;2023-03-14T18:30:49;2.57;;;2.37;;
18399;SDS011;9326;49.468;11.008;2023-03-14T18:33:17;1.80;;;1.60;;
18399;SDS011;9326;49.468;11.008;2023-03-14T18:35:46;2.40;;;1.93;;
18399;SDS011;9326;49.468;11.008;2023-03-14T18:38:15;2.27;;;1.53;;
18399;SDS011;9326;49.468;11.008;2023-03-14T18:40:42;1.80;;;1.20;;
18399;SDS011;9326;49.468;11.008;2023-03-14T18:43:12;2.40;;;2.20;;
18399;SDS011;9326;49.468;11.008;2023-03-14T18:45:39;3.53;;;3.23;;
18399;SDS011;9326;49.468;11.008;2023-03-14T18:48:08;2.73;;;2.53;;
18399;SDS011;9326;49.468;11.008;2023-03-14T18:50:37;1.77;;;1.67;;
18399;SDS011;9326;49.468;11.008;2023-03-14T18:53:05;1.80;;;1.70;;
18399;SDS011;9326;49.468;11.008;2023-03-14T18:55:33;2.20;;;2.00;;
18399;SDS011;9326;49.468;11.008;2023-03-14T18:58:00;2.00;;;1.80;;
18399;SDS011;9326;49.468;11.008;2023-03-14T19:00:27;2.40;;;2.23;;
18399;SDS011;9326;49.468;11.008;2023-03-14T19:02:54;2.07;;;1.90;;
18399;SDS011;9326;49.468;11.008;2023-03-14T19:05:25;2.00;;;1.90;;
18399;SDS011;9326;49.468;11.008;2023-03-14T19:07:52;2.10;;;1.90;;
18399;SDS011;9326;49.468;11.008;2023-03-14T19:10:22;2.57;;;2.37;;
18399;SDS011;9326;49.468;11.008;2023-03-14T19:12:49;2.07;;;1.77;;
18399;SDS011;9326;49.468;11.008;2023-03-14T19:15:17;2.47;;;1.70;;
18399;SDS011;9326;49.468;11.008;2023-03-14T19:17:44;4.40;;;2.10;;
18399;SDS011;9326;49.468;11.008;2023-03-14T19:20:12;3.67;;;2.30;;
18399;SDS011;9326;49.468;11.008;2023-03-14T19:22:43;2.97;;;2.20;;
18399;SDS011;9326;49.468;11.008;2023-03-14T19:25:10;2.33;;;2.13;;
18399;SDS011;9326;49.468;11.008;2023-03-14T19:27:37;2.23;;;2.03;;
18399;SDS011;9326;49.468;11.008;2023-03-14T19:30:05;3.73;;;2.60;;
18399;SDS011;9326;49.468;11.008;2023-03-14T19:32:32;2.73;;;2.40;;
18399;SDS011;9326;49.468;11.008;2023-03-14T19:34:59;2.80;;;2.50;;
18399;SDS011;9326;49.468;11.008;2023-03-14T19:37:26;2.57;;;2.20;;
18399;SDS011;9326;49.468;11.008;2023-03-14T19:39:55;3.67;;;2.20;;
18399;SDS011;9326;49.468;11.008;2023-03-14T19:42:22;3.87;;;3.40;;
18399;SDS011;9326;49.468;11.008;2023-03-14T19:44:49;2.60;;;2.40;;
18399;SDS011;9326;49.468;11.008;2023-03-14T19:47:17;2.80;;;2.60;;
18399;SDS011;9326;49.468;11.008;2023-03-14T19:49:45;2.87;;;2.40;;
18399;SDS011;9326;49.468;11.008;2023-03-14T19:52:12;2.70;;;2.50;;
18399;SDS011;9326;49.468;11.008;2023-03-14T19:54:41;2.30;;;2.03;;
18399;SDS011;9326;49.468;11.008;2023-03-14T19:57:09;3.53;;;2.80;;
18399;SDS011;9326;49.468;11.008;2023-03-14T19:59:36;3.23;;;2.93;;
18399;SDS011;9326;49.468;11.008;2023-03-14T20:02:04;2.40;;;2.20;;